GBA weather

Cotswold Airport
Kemble, England, United Kingdom

Public forecast

Using degrees Celsius for public forecast. Weather courtesy of forecast.io.

Closest aviation weather report (METAR) to Cotswold Airport

Closest report is RAF Fairford, 10.0 nm (18.5 km) E. Retrieved 2019/10/18 10:41 UTC (0 seconds ago):

EGVA 181041Z AUTO 23018G29KT 9999 -RA SCT025 11/08 A2948 RMK AO2 DZB31E35RAB35 SLP987

Closest aviation forecast (TAF) to Cotswold Airport

Forecast is more than 12 hours old.

Closest forecast is RAF Lyneham, 10.1 nm (18.6 km) SSE. Retrieved 2011/08/11 03:00 UTC (8 years ago):

TAF EGDL 110136Z 1103/1115 22014KT 9999 SCT008 BKN016 TEMPO 1103/1110 4000 RADZ BKN004 BECMG 1110/1112 BKN018